sensor_id;sensor_type;location;lat;lon;timestamp;temperature;humidity
7214;DHT22;3648;50.614;13.830;2023-06-22T00:02:07;21.60;99.90
7214;DHT22;3648;50.614;13.830;2023-06-22T00:04:34;21.50;99.90
7214;DHT22;3648;50.614;13.830;2023-06-22T00:07:02;21.50;99.90
7214;DHT22;3648;50.614;13.830;2023-06-22T00:09:30;21.50;99.90
7214;DHT22;3648;50.614;13.830;2023-06-22T00:11:57;21.40;99.90
7214;DHT22;3648;50.614;13.830;2023-06-22T00:14:24;21.40;99.90
7214;DHT22;3648;50.614;13.830;2023-06-22T00:16:51;21.30;99.90
7214;DHT22;3648;50.614;13.830;2023-06-22T00:19:20;21.30;99.90
7214;DHT22;3648;50.614;13.830;2023-06-22T00:21:47;21.20;99.90
7214;DHT22;3648;50.614;13.830;2023-06-22T00:24:19;21.20;99.90
7214;DHT22;3648;50.614;13.830;2023-06-22T00:26:47;21.10;99.90
7214;DHT22;3648;50.614;13.830;2023-06-22T00:29:14;21.20;99.90
7214;DHT22;3648;50.614;13.830;2023-06-22T00:31:41;21.10;99.90
7214;DHT22;3648;50.614;13.830;2023-06-22T00:34:08;21.10;99.90
7214;DHT22;3648;50.614;13.830;2023-06-22T00:36:36;21.10;99.90
7214;DHT22;3648;50.614;13.830;2023-06-22T00:39:03;21.10;99.90
7214;DHT22;3648;50.614;13.830;2023-06-22T00:41:32;21.10;99.90
7214;DHT22;3648;50.614;13.830;2023-06-22T00:43:59;21.10;99.90
7214;DHT22;3648;50.614;13.830;2023-06-22T00:46:26;21.10;99.90
7214;DHT22;3648;50.614;13.830;2023-06-22T00:48:53;21.10;99.90
7214;DHT22;3648;50.614;13.830;2023-06-22T00:51:22;21.10;99.90
7214;DHT22;3648;50.614;13.830;2023-06-22T00:53:49;21.10;99.90
7214;DHT22;3648;50.614;13.830;2023-06-22T00:56:17;21.10;99.90
7214;DHT22;3648;50.614;13.830;2023-06-22T00:58:46;21.10;99.90
7214;DHT22;3648;50.614;13.830;2023-06-22T01:01:13;21.10;99.90
7214;DHT22;3648;50.614;13.830;2023-06-22T01:03:41;21.10;99.90
7214;DHT22;3648;50.614;13.830;2023-06-22T01:06:13;20.90;99.90
7214;DHT22;3648;50.614;13.830;2023-06-22T01:08:46;20.90;99.90
7214;DHT22;3648;50.614;13.830;2023-06-22T01:11:20;20.90;99.90
7214;DHT22;3648;50.614;13.830;2023-06-22T01:13:54;20.90;99.90
7214;DHT22;3648;50.614;13.830;2023-06-22T01:16:26;21.00;99.90
7214;DHT22;3648;50.614;13.830;2023-06-22T01:18:57;20.90;99.90
7214;DHT22;3648;50.614;13.830;2023-06-22T01:21:27;20.80;99.90
7214;DHT22;3648;50.614;13.830;2023-06-22T01:24:05;20.70;99.90
7214;DHT22;3648;50.614;13.830;2023-06-22T01:26:41;20.70;99.90
7214;DHT22;3648;50.614;13.830;2023-06-22T01:29:11;20.70;99.90
7214;DHT22;3648;50.614;13.830;2023-06-22T01:31:40;20.60;99.90
7214;DHT22;3648;50.614;13.830;2023-06-22T01:34:08;20.60;99.90
7214;DHT22;3648;50.614;13.830;2023-06-22T01:36:36;20.60;99.90
7214;DHT22;3648;50.614;13.830;2023-06-22T01:39:05;20.60;99.90
7214;DHT22;3648;50.614;13.830;2023-06-22T01:41:35;20.60;99.90
7214;DHT22;3648;50.614;13.830;2023-06-22T01:44:04;20.60;99.90
7214;DHT22;3648;50.614;13.830;2023-06-22T01:46:33;20.50;99.90
7214;DHT22;3648;50.614;13.830;2023-06-22T01:49:01;20.50;99.90
7214;DHT22;3648;50.614;13.830;2023-06-22T01:51:28;20.50;99.90
7214;DHT22;3648;50.614;13.830;2023-06-22T01:53:55;20.60;99.90
7214;DHT22;3648;50.614;13.830;2023-06-22T01:56:22;20.50;99.90
7214;DHT22;3648;50.614;13.830;2023-06-22T01:58:55;20.50;99.90
7214;DHT22;3648;50.614;13.830;2023-06-22T02:01:26;20.60;99.90
7214;DHT22;3648;50.614;13.830;2023-06-22T02:04:01;20.60;99.90
7214;DHT22;3648;50.614;13.830;2023-06-22T02:06:32;20.60;99.90
7214;DHT22;3648;50.614;13.830;2023-06-22T02:09:07;20.60;99.90
7214;DHT22;3648;50.614;13.830;2023-06-22T02:11:36;20.60;99.90
7214;DHT22;3648;50.614;13.830;2023-06-22T02:14:05;20.50;99.90
7214;DHT22;3648;50.614;13.830;2023-06-22T02:16:33;20.50;99.90
7214;DHT22;3648;50.614;13.830;2023-06-22T02:19:04;20.50;99.90
7214;DHT22;3648;50.614;13.830;2023-06-22T02:21:32;20.50;99.90
7214;DHT22;3648;50.614;13.830;2023-06-22T02:23:59;20.50;99.90
7214;DHT22;3648;50.614;13.830;2023-06-22T02:26:26;20.50;99.90
7214;DHT22;3648;50.614;13.830;2023-06-22T02:28:54;20.50;99.90
7214;DHT22;3648;50.614;13.830;2023-06-22T02:31:20;20.60;99.90
7214;DHT22;3648;50.614;13.830;2023-06-22T02:33:47;20.60;99.90
7214;DHT22;3648;50.614;13.830;2023-06-22T02:36:16;20.60;99.90
7214;DHT22;3648;50.614;13.830;2023-06-22T02:38:47;20.60;99.90
7214;DHT22;3648;50.614;13.830;2023-06-22T02:41:14;20.60;99.90
7214;DHT22;3648;50.614;13.830;2023-06-22T02:43:44;20.60;99.90
7214;DHT22;3648;50.614;13.830;2023-06-22T02:46:12;20.60;99.90
7214;DHT22;3648;50.614;13.830;2023-06-22T02:48:39;20.60;99.90
7214;DHT22;3648;50.614;13.830;2023-06-22T02:51:06;20.60;99.90
7214;DHT22;3648;50.614;13.830;2023-06-22T02:53:35;20.60;99.90
7214;DHT22;3648;50.614;13.830;2023-06-22T02:56:02;20.50;99.90
7214;DHT22;3648;50.614;13.830;2023-06-22T02:58:31;20.60;99.90
7214;DHT22;3648;50.614;13.830;2023-06-22T03:01:04;20.60;99.90
7214;DHT22;3648;50.614;13.830;2023-06-22T03:03:31;20.60;99.90
7214;DHT22;3648;50.614;13.830;2023-06-22T03:05:57;20.60;99.90
7214;DHT22;3648;50.614;13.830;2023-06-22T03:08:26;20.60;99.90
7214;DHT22;3648;50.614;13.830;2023-06-22T03:10:55;20.50;99.90
7214;DHT22;3648;50.614;13.830;2023-06-22T03:13:22;20.50;99.90
7214;DHT22;3648;50.614;13.830;2023-06-22T03:15:49;20.50;99.90
7214;DHT22;3648;50.614;13.830;2023-06-22T03:18:16;20.40;99.90
7214;DHT22;3648;50.614;13.830;2023-06-22T03:20:43;20.50;99.90
7214;DHT22;3648;50.614;13.830;2023-06-22T03:23:10;20.40;99.90
7214;DHT22;3648;50.614;13.830;2023-06-22T03:25:37;20.40;99.90
7214;DHT22;3648;50.614;13.830;2023-06-22T03:28:05;20.30;99.90
7214;DHT22;3648;50.614;13.830;2023-06-22T03:30:32;20.30;99.90
7214;DHT22;3648;50.614;13.830;2023-06-22T03:32:59;20.20;99.90
7214;DHT22;3648;50.614;13.830;2023-06-22T03:35:26;20.20;99.90
7214;DHT22;3648;50.614;13.830;2023-06-22T03:37:53;20.20;99.90
7214;DHT22;3648;50.614;13.830;2023-06-22T03:40:20;20.20;99.90
7214;DHT22;3648;50.614;13.830;2023-06-22T03:42:47;20.20;99.90
7214;DHT22;3648;50.614;13.830;2023-06-22T03:45:15;20.30;99.90
7214;DHT22;3648;50.614;13.830;2023-06-22T03:47:42;20.30;99.90
7214;DHT22;3648;50.614;13.830;2023-06-22T03:50:09;20.30;99.90
7214;DHT22;3648;50.614;13.830;2023-06-22T03:52:36;20.40;99.90
7214;DHT22;3648;50.614;13.830;2023-06-22T03:55:04;20.40;99.90
7214;DHT22;3648;50.614;13.830;2023-06-22T03:57:31;20.40;99.90
7214;DHT22;3648;50.614;13.830;2023-06-22T03:59:59;20.50;99.90
7214;DHT22;3648;50.614;13.830;2023-06-22T04:02:27;20.50;99.90
7214;DHT22;3648;50.614;13.830;2023-06-22T04:04:54;20.50;99.90
7214;DHT22;3648;50.614;13.830;2023-06-22T04:07:21;20.40;99.90
7214;DHT22;3648;50.614;13.830;2023-06-22T04:09:48;20.40;99.90
7214;DHT22;3648;50.614;13.830;2023-06-22T04:12:15;20.40;99.90
7214;DHT22;3648;50.614;13.830;2023-06-22T04:14:42;20.50;99.90
7214;DHT22;3648;50.614;13.830;2023-06-22T04:17:08;20.50;99.90
7214;DHT22;3648;50.614;13.830;2023-06-22T04:19:37;20.60;99.90
7214;DHT22;3648;50.614;13.830;2023-06-22T04:22:04;20.60;99.90
7214;DHT22;3648;50.614;13.830;2023-06-22T04:24:32;20.60;99.90
7214;DHT22;3648;50.614;13.830;2023-06-22T04:26:59;20.60;99.90
7214;DHT22;3648;50.614;13.830;2023-06-22T04:29:28;20.60;99.90
7214;DHT22;3648;50.614;13.830;2023-06-22T04:31:56;20.70;99.90
7214;DHT22;3648;50.614;13.830;2023-06-22T04:34:24;20.70;99.90
7214;DHT22;3648;50.614;13.830;2023-06-22T04:36:53;20.70;99.90
7214;DHT22;3648;50.614;13.830;2023-06-22T04:39:20;20.70;99.90
7214;DHT22;3648;50.614;13.830;2023-06-22T04:41:47;20.80;99.90
7214;DHT22;3648;50.614;13.830;2023-06-22T04:44:16;20.80;99.90
7214;DHT22;3648;50.614;13.830;2023-06-22T04:46:49;20.80;99.90
7214;DHT22;3648;50.614;13.830;2023-06-22T04:49:20;20.90;99.90
7214;DHT22;3648;50.614;13.830;2023-06-22T04:51:47;20.90;99.90
7214;DHT22;3648;50.614;13.830;2023-06-22T04:54:18;20.80;99.90
7214;DHT22;3648;50.614;13.830;2023-06-22T04:56:45;20.80;99.90
7214;DHT22;3648;50.614;13.830;2023-06-22T04:59:14;20.70;99.90
7214;DHT22;3648;50.614;13.830;2023-06-22T05:01:44;20.80;99.90
7214;DHT22;3648;50.614;13.830;2023-06-22T05:04:11;20.80;99.90
7214;DHT22;3648;50.614;13.830;2023-06-22T05:06:38;20.80;99.90
7214;DHT22;3648;50.614;13.830;2023-06-22T05:09:05;20.80;99.90
7214;DHT22;3648;50.614;13.830;2023-06-22T05:11:33;20.80;99.90
7214;DHT22;3648;50.614;13.830;2023-06-22T05:14:00;20.80;99.90
7214;DHT22;3648;50.614;13.830;2023-06-22T05:16:27;20.80;99.90
7214;DHT22;3648;50.614;13.830;2023-06-22T05:18:55;20.80;99.90
7214;DHT22;3648;50.614;13.830;2023-06-22T05:21:22;20.80;99.90
7214;DHT22;3648;50.614;13.830;2023-06-22T05:23:50;20.90;99.90
7214;DHT22;3648;50.614;13.830;2023-06-22T05:26:17;20.90;99.90
7214;DHT22;3648;50.614;13.830;2023-06-22T05:28:46;20.90;99.90
7214;DHT22;3648;50.614;13.830;2023-06-22T05:31:13;21.00;99.90
7214;DHT22;3648;50.614;13.830;2023-06-22T05:33:41;21.00;99.90
7214;DHT22;3648;50.614;13.830;2023-06-22T05:36:08;21.00;99.90
7214;DHT22;3648;50.614;13.830;2023-06-22T05:38:36;21.10;99.90
7214;DHT22;3648;50.614;13.830;2023-06-22T05:41:03;21.10;99.90
7214;DHT22;3648;50.614;13.830;2023-06-22T05:43:30;21.20;99.90
7214;DHT22;3648;50.614;13.830;2023-06-22T05:45:59;21.20;99.90
7214;DHT22;3648;50.614;13.830;2023-06-22T05:48:26;21.20;99.90
7214;DHT22;3648;50.614;13.830;2023-06-22T05:50:53;21.30;99.90
7214;DHT22;3648;50.614;13.830;2023-06-22T05:53:20;21.30;99.90
7214;DHT22;3648;50.614;13.830;2023-06-22T05:55:47;21.30;99.90
7214;DHT22;3648;50.614;13.830;2023-06-22T05:58:14;21.40;99.90
7214;DHT22;3648;50.614;13.830;2023-06-22T06:00:41;21.40;99.90
7214;DHT22;3648;50.614;13.830;2023-06-22T06:03:10;21.40;99.90
7214;DHT22;3648;50.614;13.830;2023-06-22T06:05:37;21.50;99.90
7214;DHT22;3648;50.614;13.830;2023-06-22T06:08:05;21.50;99.90
7214;DHT22;3648;50.614;13.830;2023-06-22T06:10:33;21.50;99.90
7214;DHT22;3648;50.614;13.830;2023-06-22T06:13:00;21.50;99.90
7214;DHT22;3648;50.614;13.830;2023-06-22T06:15:29;21.60;99.90
7214;DHT22;3648;50.614;13.830;2023-06-22T06:17:56;21.60;99.90
7214;DHT22;3648;50.614;13.830;2023-06-22T06:20:26;21.70;99.90
7214;DHT22;3648;50.614;13.830;2023-06-22T06:22:53;21.70;99.90
7214;DHT22;3648;50.614;13.830;2023-06-22T06:25:20;21.80;99.90
7214;DHT22;3648;50.614;13.830;2023-06-22T06:27:49;21.90;99.90
7214;DHT22;3648;50.614;13.830;2023-06-22T06:30:18;22.00;99.90
7214;DHT22;3648;50.614;13.830;2023-06-22T06:32:46;22.10;99.90
7214;DHT22;3648;50.614;13.830;2023-06-22T06:35:14;22.20;99.90
7214;DHT22;3648;50.614;13.830;2023-06-22T06:37:44;22.30;99.90
7214;DHT22;3648;50.614;13.830;2023-06-22T06:40:12;22.40;99.90
7214;DHT22;3648;50.614;13.830;2023-06-22T06:42:41;22.50;99.90
7214;DHT22;3648;50.614;13.830;2023-06-22T06:45:10;22.60;99.90
7214;DHT22;3648;50.614;13.830;2023-06-22T06:47:37;22.70;99.90
7214;DHT22;3648;50.614;13.830;2023-06-22T06:50:05;22.80;99.90
7214;DHT22;3648;50.614;13.830;2023-06-22T06:52:32;22.80;99.90
7214;DHT22;3648;50.614;13.830;2023-06-22T06:55:01;22.90;99.90
7214;DHT22;3648;50.614;13.830;2023-06-22T06:57:29;23.00;99.90
7214;DHT22;3648;50.614;13.830;2023-06-22T06:59:56;23.10;99.90
7214;DHT22;3648;50.614;13.830;2023-06-22T07:02:24;23.20;99.90
7214;DHT22;3648;50.614;13.830;2023-06-22T07:04:51;23.30;99.90
7214;DHT22;3648;50.614;13.830;2023-06-22T07:07:18;23.30;99.90
7214;DHT22;3648;50.614;13.830;2023-06-22T07:09:45;23.40;99.90
7214;DHT22;3648;50.614;13.830;2023-06-22T07:12:13;23.50;99.90
7214;DHT22;3648;50.614;13.830;2023-06-22T07:14:41;23.60;99.90
7214;DHT22;3648;50.614;13.830;2023-06-22T07:17:08;23.70;99.90
7214;DHT22;3648;50.614;13.830;2023-06-22T07:19:35;23.80;99.90
7214;DHT22;3648;50.614;13.830;2023-06-22T07:22:02;23.90;99.90
7214;DHT22;3648;50.614;13.830;2023-06-22T07:24:29;24.00;99.90
7214;DHT22;3648;50.614;13.830;2023-06-22T07:26:55;24.00;99.90
7214;DHT22;3648;50.614;13.830;2023-06-22T07:29:26;24.20;99.90
7214;DHT22;3648;50.614;13.830;2023-06-22T07:31:53;24.20;99.90
7214;DHT22;3648;50.614;13.830;2023-06-22T07:34:22;24.30;99.90
7214;DHT22;3648;50.614;13.830;2023-06-22T07:36:49;24.30;99.90
7214;DHT22;3648;50.614;13.830;2023-06-22T07:39:16;24.40;99.90
7214;DHT22;3648;50.614;13.830;2023-06-22T07:41:43;24.40;99.90
7214;DHT22;3648;50.614;13.830;2023-06-22T07:44:10;24.50;99.90
7214;DHT22;3648;50.614;13.830;2023-06-22T07:46:38;24.50;99.90
7214;DHT22;3648;50.614;13.830;2023-06-22T07:49:05;24.60;99.90
7214;DHT22;3648;50.614;13.830;2023-06-22T07:51:33;24.60;99.90
7214;DHT22;3648;50.614;13.830;2023-06-22T07:54:00;24.70;99.90
7214;DHT22;3648;50.614;13.830;2023-06-22T07:56:27;24.70;99.90
7214;DHT22;3648;50.614;13.830;2023-06-22T07:58:54;24.70;99.90
7214;DHT22;3648;50.614;13.830;2023-06-22T08:01:24;24.70;99.90
7214;DHT22;3648;50.614;13.830;2023-06-22T08:03:52;24.80;99.90
7214;DHT22;3648;50.614;13.830;2023-06-22T08:06:19;24.80;99.90
7214;DHT22;3648;50.614;13.830;2023-06-22T08:08:46;24.80;99.90
7214;DHT22;3648;50.614;13.830;2023-06-22T08:11:14;24.80;99.90
7214;DHT22;3648;50.614;13.830;2023-06-22T08:13:42;24.80;99.90
7214;DHT22;3648;50.614;13.830;2023-06-22T08:16:09;24.80;99.90
7214;DHT22;3648;50.614;13.830;2023-06-22T08:18:36;24.70;99.90
7214;DHT22;3648;50.614;13.830;2023-06-22T08:21:04;24.80;99.90
7214;DHT22;3648;50.614;13.830;2023-06-22T08:23:31;24.90;99.90
7214;DHT22;3648;50.614;13.830;2023-06-22T08:25:58;24.90;99.90
7214;DHT22;3648;50.614;13.830;2023-06-22T08:28:25;24.90;99.90
7214;DHT22;3648;50.614;13.830;2023-06-22T08:30:52;25.00;99.90
7214;DHT22;3648;50.614;13.830;2023-06-22T08:33:21;25.10;99.90
7214;DHT22;3648;50.614;13.830;2023-06-22T08:35:49;25.20;99.90
7214;DHT22;3648;50.614;13.830;2023-06-22T08:38:17;25.30;99.90
7214;DHT22;3648;50.614;13.830;2023-06-22T08:40:44;25.40;99.90
7214;DHT22;3648;50.614;13.830;2023-06-22T08:43:11;25.50;99.90
7214;DHT22;3648;50.614;13.830;2023-06-22T08:45:38;25.50;99.90
7214;DHT22;3648;50.614;13.830;2023-06-22T08:48:05;25.60;99.90
7214;DHT22;3648;50.614;13.830;2023-06-22T08:50:32;25.70;99.90
7214;DHT22;3648;50.614;13.830;2023-06-22T08:52:59;25.80;99.90
7214;DHT22;3648;50.614;13.830;2023-06-22T08:55:27;25.90;99.90
7214;DHT22;3648;50.614;13.830;2023-06-22T08:57:54;26.00;99.90
7214;DHT22;3648;50.614;13.830;2023-06-22T09:00:21;26.20;99.90
7214;DHT22;3648;50.614;13.830;2023-06-22T09:02:48;26.30;99.90
7214;DHT22;3648;50.614;13.830;2023-06-22T09:05:15;26.50;99.90
7214;DHT22;3648;50.614;13.830;2023-06-22T09:07:42;26.70;99.90
7214;DHT22;3648;50.614;13.830;2023-06-22T09:10:10;26.80;99.90
7214;DHT22;3648;50.614;13.830;2023-06-22T09:12:39;27.00;99.90
7214;DHT22;3648;50.614;13.830;2023-06-22T09:15:07;27.20;99.90
7214;DHT22;3648;50.614;13.830;2023-06-22T09:17:34;27.30;99.90
7214;DHT22;3648;50.614;13.830;2023-06-22T09:20:02;27.40;99.90
7214;DHT22;3648;50.614;13.830;2023-06-22T09:22:31;27.60;99.90
7214;DHT22;3648;50.614;13.830;2023-06-22T09:24:58;27.70;99.90
7214;DHT22;3648;50.614;13.830;2023-06-22T09:27:26;27.80;99.90
7214;DHT22;3648;50.614;13.830;2023-06-22T09:29:54;27.80;99.90
7214;DHT22;3648;50.614;13.830;2023-06-22T09:32:23;27.80;99.90
7214;DHT22;3648;50.614;13.830;2023-06-22T09:34:50;27.80;99.90
7214;DHT22;3648;50.614;13.830;2023-06-22T09:37:18;27.90;99.90
7214;DHT22;3648;50.614;13.830;2023-06-22T09:39:45;27.90;99.90
7214;DHT22;3648;50.614;13.830;2023-06-22T09:42:12;27.90;99.90
7214;DHT22;3648;50.614;13.830;2023-06-22T09:44:39;28.00;99.90
7214;DHT22;3648;50.614;13.830;2023-06-22T09:47:08;28.00;99.90
7214;DHT22;3648;50.614;13.830;2023-06-22T09:49:35;28.00;99.90
7214;DHT22;3648;50.614;13.830;2023-06-22T09:52:02;28.10;99.90
7214;DHT22;3648;50.614;13.830;2023-06-22T09:54:29;28.10;99.90
7214;DHT22;3648;50.614;13.830;2023-06-22T09:56:56;28.20;99.90
7214;DHT22;3648;50.614;13.830;2023-06-22T09:59:23;28.30;99.90
7214;DHT22;3648;50.614;13.830;2023-06-22T10:01:50;28.40;99.90
7214;DHT22;3648;50.614;13.830;2023-06-22T10:04:18;28.50;99.90
7214;DHT22;3648;50.614;13.830;2023-06-22T10:06:45;28.60;99.90
7214;DHT22;3648;50.614;13.830;2023-06-22T10:09:13;28.70;99.90
7214;DHT22;3648;50.614;13.830;2023-06-22T10:11:40;28.80;99.90
7214;DHT22;3648;50.614;13.830;2023-06-22T10:14:07;28.80;99.90
7214;DHT22;3648;50.614;13.830;2023-06-22T10:16:35;28.80;99.90
7214;DHT22;3648;50.614;13.830;2023-06-22T10:19:02;29.00;99.90
7214;DHT22;3648;50.614;13.830;2023-06-22T10:21:31;28.90;99.90
7214;DHT22;3648;50.614;13.830;2023-06-22T10:23:59;29.00;99.90
7214;DHT22;3648;50.614;13.830;2023-06-22T10:26:31;29.00;99.90
7214;DHT22;3648;50.614;13.830;2023-06-22T10:28:58;29.00;99.90
7214;DHT22;3648;50.614;13.830;2023-06-22T10:31:25;28.90;99.90
7214;DHT22;3648;50.614;13.830;2023-06-22T10:33:53;28.90;99.90
7214;DHT22;3648;50.614;13.830;2023-06-22T10:36:20;29.00;99.90
7214;DHT22;3648;50.614;13.830;2023-06-22T10:38:49;29.00;99.90
7214;DHT22;3648;50.614;13.830;2023-06-22T10:41:15;28.90;99.90
7214;DHT22;3648;50.614;13.830;2023-06-22T10:43:42;28.90;99.90
7214;DHT22;3648;50.614;13.830;2023-06-22T10:46:09;29.00;99.90
7214;DHT22;3648;50.614;13.830;2023-06-22T10:48:36;29.10;99.90
7214;DHT22;3648;50.614;13.830;2023-06-22T10:51:04;29.10;99.90
7214;DHT22;3648;50.614;13.830;2023-06-22T10:53:31;29.10;99.90
7214;DHT22;3648;50.614;13.830;2023-06-22T10:56:00;29.10;99.90
7214;DHT22;3648;50.614;13.830;2023-06-22T10:58:27;29.20;99.90
7214;DHT22;3648;50.614;13.830;2023-06-22T11:00:54;29.20;99.90
7214;DHT22;3648;50.614;13.830;2023-06-22T11:03:20;29.30;99.90
7214;DHT22;3648;50.614;13.830;2023-06-22T11:05:48;29.40;99.90
7214;DHT22;3648;50.614;13.830;2023-06-22T11:08:16;29.30;99.90
7214;DHT22;3648;50.614;13.830;2023-06-22T11:10:44;29.40;99.90
7214;DHT22;3648;50.614;13.830;2023-06-22T11:13:12;29.50;99.90
7214;DHT22;3648;50.614;13.830;2023-06-22T11:15:40;29.60;99.90
7214;DHT22;3648;50.614;13.830;2023-06-22T11:18:07;29.60;99.90
7214;DHT22;3648;50.614;13.830;2023-06-22T11:20:34;29.70;99.90
7214;DHT22;3648;50.614;13.830;2023-06-22T11:23:04;29.70;99.90
7214;DHT22;3648;50.614;13.830;2023-06-22T11:25:32;29.70;99.90
7214;DHT22;3648;50.614;13.830;2023-06-22T11:28:01;29.70;99.90
7214;DHT22;3648;50.614;13.830;2023-06-22T11:30:30;29.80;99.90
7214;DHT22;3648;50.614;13.830;2023-06-22T11:32:58;29.90;99.90
7214;DHT22;3648;50.614;13.830;2023-06-22T11:35:25;29.90;99.90
7214;DHT22;3648;50.614;13.830;2023-06-22T11:37:52;29.80;99.90
7214;DHT22;3648;50.614;13.830;2023-06-22T11:40:19;29.90;99.90
7214;DHT22;3648;50.614;13.830;2023-06-22T11:42:46;29.80;99.90
7214;DHT22;3648;50.614;13.830;2023-06-22T11:45:13;29.70;99.90
7214;DHT22;3648;50.614;13.830;2023-06-22T11:47:44;29.60;99.90
7214;DHT22;3648;50.614;13.830;2023-06-22T11:50:11;29.50;99.90
7214;DHT22;3648;50.614;13.830;2023-06-22T11:52:38;29.40;99.90
7214;DHT22;3648;50.614;13.830;2023-06-22T11:55:06;29.50;99.90
7214;DHT22;3648;50.614;13.830;2023-06-22T11:57:34;29.50;99.90
7214;DHT22;3648;50.614;13.830;2023-06-22T12:00:02;29.50;99.90
7214;DHT22;3648;50.614;13.830;2023-06-22T12:02:39;29.50;99.90
7214;DHT22;3648;50.614;13.830;2023-06-22T12:05:08;29.70;99.90
7214;DHT22;3648;50.614;13.830;2023-06-22T12:07:35;29.70;99.90
7214;DHT22;3648;50.614;13.830;2023-06-22T12:10:02;29.80;99.90
7214;DHT22;3648;50.614;13.830;2023-06-22T12:12:29;29.80;99.90
7214;DHT22;3648;50.614;13.830;2023-06-22T12:14:56;29.70;99.90
7214;DHT22;3648;50.614;13.830;2023-06-22T12:17:23;29.60;99.90
7214;DHT22;3648;50.614;13.830;2023-06-22T12:19:50;29.60;99.90
7214;DHT22;3648;50.614;13.830;2023-06-22T12:22:18;29.50;99.90
7214;DHT22;3648;50.614;13.830;2023-06-22T12:24:45;29.60;99.90
7214;DHT22;3648;50.614;13.830;2023-06-22T12:27:12;29.50;99.90
7214;DHT22;3648;50.614;13.830;2023-06-22T12:29:42;29.50;99.90
7214;DHT22;3648;50.614;13.830;2023-06-22T12:32:08;29.50;99.90
7214;DHT22;3648;50.614;13.830;2023-06-22T12:34:38;29.40;99.90
7214;DHT22;3648;50.614;13.830;2023-06-22T12:37:05;29.40;99.90
7214;DHT22;3648;50.614;13.830;2023-06-22T12:39:33;29.30;99.90
7214;DHT22;3648;50.614;13.830;2023-06-22T12:42:01;29.20;99.90
7214;DHT22;3648;50.614;13.830;2023-06-22T12:44:28;29.20;99.90
7214;DHT22;3648;50.614;13.830;2023-06-22T12:46:55;29.20;99.90
7214;DHT22;3648;50.614;13.830;2023-06-22T12:49:21;29.30;99.90
7214;DHT22;3648;50.614;13.830;2023-06-22T12:51:48;29.40;99.90
7214;DHT22;3648;50.614;13.830;2023-06-22T12:54:21;29.50;99.90
7214;DHT22;3648;50.614;13.830;2023-06-22T12:56:51;29.50;99.90
7214;DHT22;3648;50.614;13.830;2023-06-22T12:59:18;29.50;99.90
7214;DHT22;3648;50.614;13.830;2023-06-22T13:01:45;29.50;99.90
7214;DHT22;3648;50.614;13.830;2023-06-22T13:04:13;29.50;99.90
7214;DHT22;3648;50.614;13.830;2023-06-22T13:06:41;29.50;99.90
7214;DHT22;3648;50.614;13.830;2023-06-22T13:09:09;29.40;99.90
7214;DHT22;3648;50.614;13.830;2023-06-22T13:11:37;29.40;99.90
7214;DHT22;3648;50.614;13.830;2023-06-22T13:14:05;29.30;99.90
7214;DHT22;3648;50.614;13.830;2023-06-22T13:16:33;29.30;99.90
7214;DHT22;3648;50.614;13.830;2023-06-22T13:19:00;29.30;99.90
7214;DHT22;3648;50.614;13.830;2023-06-22T13:21:27;29.40;99.90
7214;DHT22;3648;50.614;13.830;2023-06-22T13:23:56;29.40;99.90
7214;DHT22;3648;50.614;13.830;2023-06-22T13:26:25;29.40;99.90
7214;DHT22;3648;50.614;13.830;2023-06-22T13:28:54;29.40;99.90
7214;DHT22;3648;50.614;13.830;2023-06-22T13:31:22;29.30;99.90
7214;DHT22;3648;50.614;13.830;2023-06-22T13:33:49;29.20;99.90
7214;DHT22;3648;50.614;13.830;2023-06-22T13:36:17;29.20;99.90
7214;DHT22;3648;50.614;13.830;2023-06-22T13:38:45;29.30;99.90
7214;DHT22;3648;50.614;13.830;2023-06-22T13:41:12;29.20;99.90
7214;DHT22;3648;50.614;13.830;2023-06-22T13:43:39;29.20;99.90
7214;DHT22;3648;50.614;13.830;2023-06-22T13:46:06;29.30;99.90
7214;DHT22;3648;50.614;13.830;2023-06-22T13:48:34;29.30;99.90
7214;DHT22;3648;50.614;13.830;2023-06-22T13:51:01;29.40;99.90
7214;DHT22;3648;50.614;13.830;2023-06-22T13:53:28;29.40;99.90
7214;DHT22;3648;50.614;13.830;2023-06-22T13:55:56;29.50;99.90
7214;DHT22;3648;50.614;13.830;2023-06-22T13:58:23;29.50;99.90
7214;DHT22;3648;50.614;13.830;2023-06-22T14:00:50;29.50;99.90
7214;DHT22;3648;50.614;13.830;2023-06-22T14:03:16;29.60;99.90
7214;DHT22;3648;50.614;13.830;2023-06-22T14:05:45;29.70;99.90
7214;DHT22;3648;50.614;13.830;2023-06-22T14:08:12;29.80;99.90
7214;DHT22;3648;50.614;13.830;2023-06-22T14:10:40;29.90;99.90
7214;DHT22;3648;50.614;13.830;2023-06-22T14:13:07;29.90;99.90
7214;DHT22;3648;50.614;13.830;2023-06-22T14:15:34;29.90;99.90
7214;DHT22;3648;50.614;13.830;2023-06-22T14:18:01;29.90;99.90
7214;DHT22;3648;50.614;13.830;2023-06-22T14:20:28;29.80;99.90
7214;DHT22;3648;50.614;13.830;2023-06-22T14:22:56;29.80;99.90
7214;DHT22;3648;50.614;13.830;2023-06-22T14:25:23;29.80;99.90
7214;DHT22;3648;50.614;13.830;2023-06-22T14:27:50;29.80;99.90
7214;DHT22;3648;50.614;13.830;2023-06-22T14:30:17;29.80;99.90
7214;DHT22;3648;50.614;13.830;2023-06-22T14:32:44;29.80;99.90
7214;DHT22;3648;50.614;13.830;2023-06-22T14:35:11;29.80;99.90
7214;DHT22;3648;50.614;13.830;2023-06-22T14:37:38;29.80;99.90
7214;DHT22;3648;50.614;13.830;2023-06-22T14:40:07;29.90;99.90
7214;DHT22;3648;50.614;13.830;2023-06-22T14:42:34;29.90;99.90
7214;DHT22;3648;50.614;13.830;2023-06-22T14:45:01;29.90;99.90
7214;DHT22;3648;50.614;13.830;2023-06-22T14:47:28;29.80;99.90
7214;DHT22;3648;50.614;13.830;2023-06-22T14:49:55;29.90;99.90
7214;DHT22;3648;50.614;13.830;2023-06-22T14:52:22;29.90;99.90
7214;DHT22;3648;50.614;13.830;2023-06-22T14:54:49;29.90;99.90
7214;DHT22;3648;50.614;13.830;2023-06-22T14:57:19;29.90;99.90
7214;DHT22;3648;50.614;13.830;2023-06-22T14:59:48;29.90;99.90
7214;DHT22;3648;50.614;13.830;2023-06-22T15:02:15;29.80;99.90
7214;DHT22;3648;50.614;13.830;2023-06-22T15:04:42;29.80;99.90
7214;DHT22;3648;50.614;13.830;2023-06-22T15:07:10;29.70;99.90
7214;DHT22;3648;50.614;13.830;2023-06-22T15:09:37;29.80;99.90
7214;DHT22;3648;50.614;13.830;2023-06-22T15:12:08;29.90;99.90
7214;DHT22;3648;50.614;13.830;2023-06-22T15:14:39;29.90;99.90
7214;DHT22;3648;50.614;13.830;2023-06-22T15:17:06;30.00;99.90
7214;DHT22;3648;50.614;13.830;2023-06-22T15:19:35;29.90;99.90
7214;DHT22;3648;50.614;13.830;2023-06-22T15:22:04;29.90;99.90
7214;DHT22;3648;50.614;13.830;2023-06-22T15:24:31;29.90;99.90
7214;DHT22;3648;50.614;13.830;2023-06-22T15:26:58;29.90;99.90
7214;DHT22;3648;50.614;13.830;2023-06-22T15:29:26;29.90;99.90
7214;DHT22;3648;50.614;13.830;2023-06-22T15:31:54;29.90;99.90
7214;DHT22;3648;50.614;13.830;2023-06-22T15:34:21;29.90;99.90
7214;DHT22;3648;50.614;13.830;2023-06-22T15:36:48;29.90;99.90
7214;DHT22;3648;50.614;13.830;2023-06-22T15:39:15;29.90;99.90
7214;DHT22;3648;50.614;13.830;2023-06-22T15:41:43;29.90;99.90
7214;DHT22;3648;50.614;13.830;2023-06-22T15:44:10;29.90;99.90
7214;DHT22;3648;50.614;13.830;2023-06-22T15:46:37;29.90;99.90
7214;DHT22;3648;50.614;13.830;2023-06-22T15:49:05;29.90;99.90